Latest Weather Observations for Sydney Olympic Park

IDN60801

Issued at 10:02 pm EST Wednesday 5 August 2015 (issued every 30 minutes, with the page automatically refreshed every 10 minutes)

About weather observations | Map of weather stations | Latest weather observations for NSW | Other Formats
Station Details ID: 066212 Name: SYDNEY OLYMPIC PARK AWS (ARCHERY CENTRE) Lat: -33.83 Lon: 151.07 Height: 4.0 m
Data from the previous 72 hours. | See also: Recent months at Sydney Olympic Park
Date/Time
EST
Temp
°C
App
Temp
°C
Dew
Point
Rel
Hum
%
Delta-T
°C
Wind Press
QNH
hPa
Press
MSL
hPa
Rain
since 9 am
mm
Dir
 
Spd
km/h
Gust
km/h
Spd
kts
Gust
kts
05/10:00pm 8.8 6.6 3.2 68 2.4 WSW 4 11 2 6 - - 0.0
05/09:30pm 8.6 6.0 4.0 73 2.0 W 7 11 4 6 - - 0.0
05/09:00pm 8.0 5.4 4.4 78 1.6 NW 7 11 4 6 - - 0.0
05/08:30pm 8.3 5.5 3.4 71 2.1 NNW 7 11 4 6 - - 0.0
05/08:00pm 8.8 5.7 3.4 69 2.3 NW 9 13 5 7 - - 0.0
05/07:30pm 10.0 5.7 3.5 64 2.8 NW 15 20 8 11 - - 0.0
05/07:00pm 10.6 6.0 3.9 63 3.0 NW 17 24 9 13 - - 0.0
05/06:30pm 10.7 7.2 3.5 61 3.2 NW 11 17 6 9 - - 0.0
05/06:00pm 11.7 7.4 3.5 57 3.6 NW 15 26 8 14 - - 0.0
05/05:30pm 11.9 8.1 3.7 57 3.6 NW 13 20 7 11 - - 0.0
05/05:00pm 13.4 8.6 2.6 48 4.8 WNW 17 30 9 16 - - 0.0
05/04:30pm 14.8 10.1 3.3 46 5.2 WNW 17 35 9 19 - - 0.0
05/04:00pm 14.9 9.3 3.7 47 5.1 WNW 22 37 12 20 - - 0.0
05/03:30pm 15.3 9.6 3.1 44 5.5 WNW 22 35 12 19 - - 0.0
05/03:00pm 12.7 8.0 3.4 53 4.1 NW 17 22 9 12 - - 0.0
05/02:30pm 12.9 7.7 3.6 53 4.2 WNW 20 28 11 15 - - 0.0
05/02:00pm 13.0 7.3 3.1 51 4.4 WNW 22 33 12 18 - - 0.0
05/01:30pm 13.1 7.0 2.6 49 4.6 WNW 24 37 13 20 - - 0.0
05/01:00pm 12.7 8.2 2.3 49 4.5 WNW 15 20 8 11 - - 0.0
05/12:30pm 12.4 8.4 2.6 51 4.3 WNW 13 20 7 11 - - 0.0
05/12:00pm 12.3 8.4 3.5 55 3.9 NW 13 28 7 15 - - 0.0
05/11:30am 11.9 7.5 2.9 54 3.9 NW 15 22 8 12 - - 0.0
05/11:00am 10.8 6.7 2.1 55 3.7 NW 13 22 7 12 - - 0.0
05/10:30am 11.2 7.1 2.2 54 3.8 NW 13 24 7 13 - - 0.0
05/10:00am 11.2 6.8 2.5 55 3.7 NNW 15 20 8 11 - - 0.0
05/09:30am 10.5 5.9 1.3 53 3.8 NW 15 22 8 12 - - 0.0
05/09:00am 9.9 5.4 0.0 50 4.0 NW 13 22 7 12 - - 0.0
05/08:30am 8.6 5.0 0.8 58 3.1 NW 9 13 5 7 - - 0.0
05/08:00am 6.5 3.4 0.0 63 2.5 WNW 6 9 3 5 - - 0.0
05/07:30am 4.2 0.9 -0.2 73 1.6 NW 7 11 4 6 - - 0.0
05/07:00am 3.8 0.1 0.0 76 1.4 NW 9 13 5 7 - - 0.0
05/06:30am 3.6 -0.5 -0.2 76 1.4 NW 11 17 6 9 - - 0.0
05/06:00am 3.9 0.1 -0.9 71 1.8 N 9 13 5 7 - - 0.0
05/05:30am 3.5 -0.3 -0.5 75 1.5 NW 9 13 5 7 - - 0.0
05/05:00am 3.4 -0.3 0.1 79 1.2 NNW 9 13 5 7 - - 0.0
05/04:30am 2.9 -0.7 0.8 86 0.8 NW 9 13 5 7 - - 0.0
05/04:00am 2.7 -0.4 0.4 85 0.9 NNW 6 11 3 6 - - 0.0
05/03:30am 3.4 1.4 -0.4 76 1.4 CALM 0 2 0 1 - - 0.0
05/03:00am 4.0 2.1 0.5 78 1.3 CALM 0 0 0 0 - - 0.0
05/02:30am 4.6 1.3 0.4 74 1.6 NW 7 9 4 5 - - 0.0
05/02:00am 4.7 2.0 0.1 72 1.7 WNW 4 9 2 5 - - 0.0
05/01:30am 3.9 0.8 0.2 77 1.4 WNW 6 9 3 5 - - 0.0
05/01:00am 4.5 0.9 0.3 74 1.6 WNW 9 11 5 6 - - 0.0
05/12:30am 4.7 1.1 0.7 75 1.5 WNW 9 13 5 7 - - 0.0
05/12:00am 5.0 1.4 0.8 74 1.6 NW 9 13 5 7 - - 0.0
 
Date/Time
EST
Temp
°C
App
Temp
°C
Dew
Point
Rel
Hum
%
Delta-T
°C
Wind Press
QNH
hPa
Press
MSL
hPa
Rain
since 9 am
mm
Dir
 
Spd
km/h
Gust
km/h
Spd
kts
Gust
kts
04/11:30pm 4.9 1.4 1.2 77 1.4 NW 9 15 5 8 - - 0.0
04/11:00pm 4.7 1.9 2.1 83 1.0 NNW 6 9 3 5 - - 0.0
04/10:30pm 5.1 3.0 1.6 78 1.4 NNW 2 6 1 3 - - 0.0
04/10:00pm 5.9 3.6 0.5 68 2.1 NW 2 7 1 4 - - 0.0
04/09:30pm 6.7 3.6 0.2 63 2.5 WNW 6 9 3 5 - - 0.0
04/09:00pm 8.3 4.6 0.1 56 3.2 W 9 15 5 8 - - 0.0
04/08:30pm 8.4 5.4 2.2 65 2.6 W 7 13 4 7 - - 0.0
04/08:00pm 6.3 3.2 3.6 83 1.1 NW 9 15 5 8 - - 0.0
04/07:30pm 6.3 5.0 4.1 86 0.9 CALM 0 0 0 0 - - 0.0
04/07:00pm 7.2 5.5 4.2 81 1.3 NNE 2 6 1 3 - - 0.0
04/06:30pm 8.2 6.2 4.2 76 1.7 NNE 4 7 2 4 - - 0.0
04/06:00pm 9.0 7.3 4.0 71 2.2 NE 2 7 1 4 - - 0.0
04/05:30pm 10.6 7.9 3.6 62 3.1 NNE 7 11 4 6 - - 0.0
04/05:00pm 11.4 8.6 3.2 57 3.6 N 7 11 4 6 - - 0.0
04/04:30pm 12.4 9.1 2.6 51 4.3 N 9 15 5 8 - - 0.0
04/04:00pm 13.1 9.1 2.6 49 4.6 NNW 13 17 7 9 - - 0.0
04/03:30pm 13.7 9.8 3.2 49 4.7 N 13 17 7 9 - - 0.0
04/03:00pm 13.0 9.7 2.3 48 4.7 N 9 17 5 9 - - 0.0
04/02:30pm 14.2 10.8 3.9 50 4.7 N 11 17 6 9 - - 0.0
04/02:00pm 14.2 12.3 3.1 47 5.0 N 2 7 1 4 - - 0.0
04/01:30pm 13.7 10.9 2.9 48 4.8 NNW 7 13 4 7 - - 0.0
04/01:00pm 13.3 10.2 1.3 44 5.1 ENE 7 11 4 6 - - 0.0
04/12:30pm 13.0 11.1 2.8 50 4.5 E 2 7 1 4 - - 0.0
04/12:00pm 11.7 8.7 1.9 51 4.2 SW 7 11 4 6 - - 0.0
04/11:30am 11.6 8.6 2.1 52 4.1 W 7 15 4 8 - - 0.0
04/11:00am 10.8 7.6 2.9 58 3.4 WNW 9 15 5 8 - - 0.0
04/10:30am 10.3 7.1 3.3 62 3.0 WNW 9 15 5 8 - - 0.0
04/10:00am 9.3 5.9 1.9 60 3.1 W 9 15 5 8 - - 0.0
04/09:30am 9.1 5.8 2.7 64 2.7 WNW 9 15 5 8 - - 0.0
04/09:00am 8.4 5.0 1.6 62 2.8 W 9 19 5 10 - - 0.0
04/08:30am 8.0 4.7 2.5 68 2.3 WNW 9 13 5 7 - - 0.0
04/08:00am 7.8 4.7 1.6 65 2.5 W 7 13 4 7 - - 0.0
04/07:30am 7.5 4.7 2.0 68 2.3 WNW 6 13 3 7 - - 0.0
04/07:00am 7.5 4.4 1.6 66 2.4 W 7 11 4 6 - - 0.0
04/06:30am 7.5 4.6 1.4 65 2.5 WSW 6 11 3 6 - - 0.0
04/06:00am 7.4 3.9 1.5 66 2.4 WSW 9 13 5 7 - - 0.0
04/05:30am 7.2 4.8 2.1 70 2.1 WSW 4 9 2 5 - - 0.0
04/05:00am 7.2 4.5 2.5 72 1.9 WSW 6 9 3 5 - - 0.0
04/04:30am 6.7 4.9 3.5 80 1.4 WSW 2 7 1 4 - - 0.0
04/04:00am 6.0 4.6 3.8 86 0.9 CALM 0 6 0 3 - - 0.0
04/03:30am 5.7 4.5 4.5 92 0.5 CALM 0 0 0 0 - - 0.0
04/03:00am 5.6 4.4 4.6 93 0.4 CALM 0 0 0 0 - - 0.0
04/02:30am 5.2 2.8 4.2 93 0.4 W 6 7 3 4 - - 0.0
04/02:00am 5.0 3.6 3.8 92 0.5 CALM 0 7 0 4 - - 0.0
04/01:30am 5.0 3.6 3.7 91 0.5 CALM 0 0 0 0 - - 0.0
04/01:00am 5.5 4.2 4.0 90 0.6 CALM 0 0 0 0 - - 0.0
04/12:30am 6.0 4.8 4.5 90 0.6 CALM 0 0 0 0 - - 0.0
04/12:00am 6.2 4.9 3.9 85 1.0 CALM 0 0 0 0 - - 0.0
 
Date/Time
EST
Temp
°C
App
Temp
°C
Dew
Point
Rel
Hum
%
Delta-T
°C
Wind Press
QNH
hPa
Press
MSL
hPa
Rain
since 9 am
mm
Dir
 
Spd
km/h
Gust
km/h
Spd
kts
Gust
kts
03/11:30pm 6.6 5.3 4.1 84 1.1 CALM 0 0 0 0 - - 0.0
03/11:00pm 7.3 5.9 3.7 78 1.5 CALM 0 0 0 0 - - 0.0
03/10:30pm 8.4 6.6 3.5 71 2.1 WSW 2 7 1 4 - - 0.0
03/10:00pm 9.7 7.0 2.6 61 3.0 S 6 9 3 5 - - 0.0
03/09:30pm 11.1 8.1 1.9 53 3.9 SW 7 13 4 7 - - 0.0
03/09:00pm 12.0 7.8 1.9 50 4.3 W 13 24 7 13 - - 0.0
03/08:30pm 12.2 8.2 2.6 52 4.2 W 13 24 7 13 - - 0.0
03/08:00pm 12.7 8.3 2.8 51 4.3 W 15 26 8 14 - - 0.0
03/07:30pm 12.7 9.0 2.6 50 4.4 WSW 11 19 6 10 - - 0.0
03/07:00pm 12.6 9.4 3.0 52 4.2 WNW 9 20 5 11 - - 0.0
03/06:30pm 13.1 10.4 2.6 49 4.6 W 6 11 3 6 - - 0.0
03/06:00pm 14.2 10.2 2.8 46 5.1 W 13 22 7 12 - - 0.0
03/05:30pm 14.5 9.7 2.4 44 5.4 W 17 30 9 16 - - 0.0
03/05:00pm 14.9 10.0 2.1 42 5.6 W 17 30 9 16 - - 0.0
03/04:30pm 15.9 10.5 2.3 40 6.1 WSW 20 35 11 19 - - 0.0
03/04:00pm 16.7 11.7 3.4 41 6.1 WSW 19 33 10 18 - - 0.0
03/03:30pm 17.3 13.1 3.6 40 6.4 WSW 15 28 8 15 - - 0.0
03/03:00pm 18.0 14.0 3.1 37 6.9 W 13 24 7 13 - - 0.0
03/02:30pm 18.4 14.0 4.6 40 6.6 WNW 17 28 9 15 - - 0.0
03/02:00pm 18.2 13.2 3.7 38 6.8 W 19 37 10 20 - - 0.0
03/01:30pm 18.5 14.1 4.7 40 6.6 WNW 17 26 9 14 - - 0.0
03/01:00pm 18.2 13.3 4.0 39 6.7 WNW 19 28 10 15 - - 0.0
03/12:30pm 17.5 13.1 4.5 42 6.2 WNW 17 24 9 13 - - 0.0
03/12:00pm 17.4 14.0 5.7 46 5.7 NW 13 24 7 13 - - 0.0
03/11:30am 16.4 12.4 5.1 47 5.4 NW 15 26 8 14 - - 0.0
03/11:00am 16.2 13.1 3.6 43 5.8 WNW 9 17 5 9 - - 0.0
03/10:30am 15.1 10.8 3.0 44 5.5 NW 15 20 8 11 - - 0.0
03/10:00am 14.6 11.0 2.8 45 5.3 NW 11 19 6 10 - - 0.0
03/09:30am 13.8 10.3 3.6 50 4.6 NW 11 19 6 10 - - 0.0
03/09:00am 12.4 8.7 2.6 51 4.3 NW 11 17 6 9 - - 0.0
03/08:30am 10.5 7.8 3.5 62 3.1 NW 7 11 4 6 - - 0.0
03/08:00am 7.5 6.6 6.0 90 0.7 CALM 0 0 0 0 - - 0.0
03/07:30am 4.4 2.9 3.2 92 0.5 CALM 0 0 0 0 - - 0.0
03/07:00am 3.9 2.0 2.6 91 0.5 N 2 7 1 4 - - 0.0
03/06:30am 4.1 2.5 2.6 90 0.6 CALM 0 6 0 3 - - 0.0
03/06:00am 4.1 2.5 2.6 90 0.6 CALM 0 0 0 0 - - 0.0
03/05:30am 4.5 2.9 2.5 87 0.8 CALM 0 0 0 0 - - 0.0
03/05:00am 5.0 3.4 2.4 83 1.0 CALM 0 0 0 0 - - 0.0
03/04:30am 6.0 4.4 2.5 78 1.4 CALM 0 6 0 3 - - 0.0
03/04:00am 7.1 5.2 0.5 63 2.6 CALM 0 0 0 0 - - 0.0
03/03:30am 8.8 5.8 0.8 57 3.2 WSW 6 9 3 5 - - 0.0
03/03:00am 9.5 6.6 1.2 56 3.4 WSW 6 11 3 6 - - 0.0
03/02:30am 10.4 6.9 1.2 53 3.8 SW 9 15 5 8 - - 0.0
03/02:00am 10.5 7.8 2.6 58 3.4 WSW 6 11 3 6 - - 0.0
03/01:30am 10.7 8.4 4.8 67 2.7 WNW 6 7 3 4 - - 0.0
03/01:00am 12.6 10.3 4.6 58 3.7 WSW 6 11 3 6 - - 0.0
03/12:30am 13.6 10.3 6.2 61 3.5 SSW 13 20 7 11 - - 0.0
03/12:00am 13.7 11.8 7.7 67 3.0 WSW 7 11 4 6 - - 0.0
 
Date/Time
EST
Temp
°C
App
Temp
°C
Dew
Point
Rel
Hum
%
Delta-T
°C
Wind Press
QNH
hPa
Press
MSL
hPa
Rain
since 9 am
mm
Dir
 
Spd
km/h
Gust
km/h
Spd
kts
Gust
kts
02/11:30pm 13.5 11.9 8.1 70 2.7 W 6 9 3 5 - - 0.0
02/11:00pm 15.0 13.8 8.0 63 3.5 W 4 7 2 4 - - 0.0
02/10:30pm 16.1 13.6 8.1 59 4.0 WNW 11 17 6 9 - - 0.0

Other Formats:

Comma delimited format used in spreadsheet applications
http://www.bom.gov.au/fwo/IDN60801/IDN60801.95765.axf

JavaScript Object Notation format (JSON) in row-major order
http://www.bom.gov.au/fwo/IDN60801/IDN60801.95765.json